Airfield :
LOGIN :

Register | Disclaimer

   EN    FR    IT 

 










Legend :    VFR   Marginal VFR   IFR   Intensive IFR   Very Intensive IFR
Visi :
Ceiling :
>= 8 km
>= 3000ft
5 to 8 km
1000 to 3000 ft
1500m to 5 km
500 to 1000 ft
800 to 1500m
200 to 500 ft
< 800m
< 200 ft
Symbols :   Thunderstorms  Fog  Heavy snow  Heavy precipitations  Wind > 20 kt
SIGMETs :     Misc.  Thunderstorms  Icing  Turbulence  Mountain Waves  Volcanic Ashes






- Airport Elevation : 1036 ft
- IATA code : ERF


EDDE - Erfurt

CURRENT METAR :
  • 181220Z AUTO VRB04KT 9999 FEW044 24/14 Q1024 NOSIG

EXPIRED METARs :
  • 181150Z AUTO VRB03KT 9999 FEW041 24/14 Q1024 NOSIG
  • 181120Z AUTO 31004KT 250V360 CAVOK 24/14 Q1024 NOSIG
  • 181050Z AUTO VRB03KT CAVOK 23/14 Q1024 NOSIG
  • 181020Z AUTO 30004KT 220V010 9999 FEW035 23/14 Q1024 NOSIG
  • 180950Z AUTO VRB05KT 9999 FEW033 23/15 Q1025 NOSIG
  • 180920Z AUTO 31004KT 280V050 CAVOK 23/15 Q1025 NOSIG

TAF TAF EDDE
Valid from the 18 at 12:00 until the 19 at 12:00 UTC


181100Z 1812/1912 VRB03KT CAVOK
BECMG 1821/1824 18009KT



MET'MAP, your aeronautical weather chart ! - Copyright ORBIFLY December 2007 - Disclaimer

ORBIFLY MET'MAP TEAM :

Programming & Development : Alexandra Zaïnal
Original concept : Baudouin d'Aumeries
Technical & hardware support : Manuel Goepfert
Assistance : Marc-Olivier Méhu

Contact : metmap@orbifly.com




SOURCES & CREDITS :

   NOAA